createdAt,value
2022-09-23T00:01:40.182Z,99.90
2022-09-23T00:06:24.988Z,99.90
2022-09-23T00:11:11.873Z,99.90
2022-09-23T00:15:55.271Z,99.90
2022-09-23T00:20:38.637Z,99.90
2022-09-23T00:25:22.032Z,99.90
2022-09-23T00:30:09.378Z,99.90
2022-09-23T00:34:52.860Z,99.90
2022-09-23T00:39:36.239Z,99.90
2022-09-23T00:44:48.964Z,99.90
2022-09-23T00:49:33.904Z,99.90
2022-09-23T00:54:17.887Z,99.90
2022-09-23T00:59:02.876Z,99.90
2022-09-23T01:03:47.578Z,99.90
2022-09-23T01:08:32.448Z,99.90
2022-09-23T01:13:25.901Z,99.90
2022-09-23T01:18:17.566Z,99.90
2022-09-23T01:23:19.216Z,99.90
2022-09-23T01:28:37.578Z,99.90
2022-09-23T01:33:27.435Z,99.90
2022-09-23T01:38:22.007Z,99.90
2022-09-23T01:43:10.107Z,99.90
2022-09-23T01:47:57.406Z,99.90
2022-09-23T01:52:47.437Z,99.90
2022-09-23T01:57:36.104Z,99.90
2022-09-23T02:02:25.459Z,99.90
2022-09-23T02:07:15.301Z,99.90
2022-09-23T02:12:05.873Z,99.90
2022-09-23T02:16:52.308Z,99.90
2022-09-23T02:21:59.064Z,99.90
2022-09-23T02:27:13.368Z,99.90
2022-09-23T02:32:19.907Z,99.90
2022-09-23T02:37:21.171Z,99.90
2022-09-23T02:42:11.367Z,99.90
2022-09-23T02:46:54.823Z,99.90
2022-09-23T02:51:39.005Z,99.90
2022-09-23T02:56:22.976Z,99.90
2022-09-23T03:01:19.146Z,99.90
2022-09-23T03:06:40.996Z,99.90
2022-09-23T03:11:49.815Z,99.90
2022-09-23T03:17:00.659Z,99.90
2022-09-23T03:22:07.450Z,99.90
2022-09-23T03:27:16.353Z,99.90
2022-09-23T03:32:22.189Z,99.90
2022-09-23T03:37:30.364Z,99.90
2022-09-23T03:42:34.582Z,99.90
2022-09-23T03:47:39.696Z,99.90
2022-09-23T03:52:41.814Z,99.90
2022-09-23T03:57:44.839Z,99.90
2022-09-23T04:02:49.940Z,99.90
2022-09-23T04:07:52.476Z,99.90
2022-09-23T04:12:54.347Z,99.90
2022-09-23T04:17:57.581Z,99.90
2022-09-23T04:22:59.455Z,99.90
2022-09-23T04:28:01.804Z,99.90
2022-09-23T04:33:04.892Z,99.90
2022-09-23T04:38:07.271Z,99.90
2022-09-23T04:43:13.471Z,99.90
2022-09-23T04:48:17.766Z,99.90
2022-09-23T04:53:19.953Z,99.90
2022-09-23T04:58:23.237Z,99.90
2022-09-23T05:03:26.678Z,99.90
2022-09-23T05:08:28.654Z,99.90
2022-09-23T05:13:30.321Z,99.90
2022-09-23T05:18:35.204Z,99.90
2022-09-23T05:23:37.728Z,99.90
2022-09-23T05:28:40.373Z,99.90
2022-09-23T05:33:46.064Z,99.90
2022-09-23T05:38:49.241Z,99.90
2022-09-23T05:43:51.939Z,99.90
2022-09-23T05:49:01.841Z,99.90
2022-09-23T05:54:05.661Z,99.90
2022-09-23T05:59:08.152Z,99.90
2022-09-23T06:04:15.376Z,99.90
2022-09-23T06:09:17.264Z,99.90
2022-09-23T06:14:19.548Z,99.90
2022-09-23T06:19:23.469Z,99.90
2022-09-23T06:24:30.782Z,99.90
2022-09-23T06:29:33.957Z,99.90
2022-09-23T06:34:48.490Z,99.90
2022-09-23T06:39:55.007Z,99.90
2022-09-23T06:44:57.376Z,99.90
2022-09-23T06:50:00.551Z,99.90
2022-09-23T06:55:02.698Z,99.90
2022-09-23T07:00:05.630Z,99.90
2022-09-23T07:05:09.652Z,99.90
2022-09-23T07:10:13.467Z,99.90
2022-09-23T07:15:17.174Z,99.90
2022-09-23T07:20:20.593Z,99.90
2022-09-23T07:25:23.180Z,99.90
2022-09-23T07:30:25.641Z,99.90
2022-09-23T07:35:29.367Z,99.90
2022-09-23T07:40:31.699Z,99.90
2022-09-23T07:45:34.419Z,99.90
2022-09-23T07:50:39.702Z,99.90
2022-09-23T07:55:41.829Z,99.90
2022-09-23T08:00:43.901Z,99.90
2022-09-23T08:05:47.335Z,99.90
2022-09-23T08:10:49.520Z,99.90
2022-09-23T08:15:55.352Z,99.90
2022-09-23T08:20:58.857Z,99.90
2022-09-23T08:26:02.290Z,99.90
2022-09-23T08:31:04.864Z,99.90
2022-09-23T08:36:09.337Z,99.90
2022-09-23T08:41:21.680Z,99.90
2022-09-23T08:46:28.012Z,99.90
2022-09-23T08:51:40.003Z,99.90
2022-09-23T08:56:45.944Z,99.90
2022-09-23T09:01:51.260Z,99.90
2022-09-23T09:07:24.676Z,99.90
2022-09-23T09:12:42.041Z,99.90
2022-09-23T09:17:59.452Z,99.90
2022-09-23T09:23:14.847Z,99.90
2022-09-23T09:28:23.424Z,99.90
2022-09-23T09:33:32.008Z,99.90
2022-09-23T09:38:35.625Z,99.90
2022-09-23T09:43:44.025Z,99.90
2022-09-23T09:48:53.844Z,99.90
2022-09-23T09:54:18.338Z,99.50
2022-09-23T09:59:26.772Z,99.90
2022-09-23T10:04:36.318Z,99.90
2022-09-23T10:09:43.359Z,99.90
2022-09-23T10:14:45.690Z,99.90
2022-09-23T10:19:50.710Z,99.90
2022-09-23T10:24:55.871Z,99.90
2022-09-23T10:30:00.431Z,99.90
2022-09-23T10:35:15.997Z,99.90
2022-09-23T10:40:40.761Z,99.90
2022-09-23T10:46:12.401Z,99.90
2022-09-23T10:51:25.474Z,99.90
2022-09-23T10:56:37.449Z,99.90
2022-09-23T11:01:45.409Z,99.90
2022-09-23T11:07:01.898Z,99.90
2022-09-23T11:12:16.712Z,99.90
2022-09-23T11:17:33.466Z,99.90
2022-09-23T11:22:48.658Z,99.90
2022-09-23T11:28:09.531Z,99.90
2022-09-23T11:33:26.578Z,99.80
2022-09-23T11:38:37.028Z,99.90
2022-09-23T11:43:43.623Z,99.90
2022-09-23T11:48:55.658Z,99.40
2022-09-23T11:54:02.137Z,99.90
2022-09-23T11:59:11.633Z,98.30
2022-09-23T12:04:21.594Z,98.00
2022-09-23T12:09:56.649Z,97.80
2022-09-23T12:15:02.971Z,96.20
2022-09-23T12:20:30.378Z,96.70
2022-09-23T12:25:43.506Z,93.40
2022-09-23T12:30:48.529Z,93.30
2022-09-23T12:35:50.582Z,91.90
2022-09-23T12:40:53.938Z,93.30
2022-09-23T12:46:17.955Z,92.10
2022-09-23T12:51:22.008Z,90.70
2022-09-23T12:56:27.807Z,88.90
2022-09-23T13:01:38.694Z,86.10
2022-09-23T13:06:43.246Z,82.40
2022-09-23T13:11:48.280Z,86.30
2022-09-23T13:16:52.570Z,85.10
2022-09-23T13:22:09.363Z,83.20
2022-09-23T13:27:22.443Z,82.70
2022-09-23T13:32:32.726Z,86.30
2022-09-23T13:37:43.361Z,83.80
2022-09-23T13:42:49.071Z,80.80
2022-09-23T13:47:54.589Z,80.40
2022-09-23T13:53:00.336Z,81.50
2022-09-23T13:58:04.443Z,77.90
2022-09-23T14:03:20.290Z,79.90
2022-09-23T14:08:22.774Z,78.50
2022-09-23T14:13:27.391Z,76.70
2022-09-23T14:18:35.472Z,77.20
2022-09-23T14:23:45.495Z,76.90
2022-09-23T14:28:48.542Z,74.30
2022-09-23T14:33:51.874Z,75.10
2022-09-23T14:38:53.974Z,75.90
2022-09-23T14:43:59.232Z,74.70
2022-09-23T14:49:17.083Z,73.90
2022-09-23T14:54:35.442Z,73.70
2022-09-23T14:59:38.724Z,78.10
2022-09-23T15:04:42.470Z,80.50
2022-09-23T15:09:46.491Z,82.20
2022-09-23T15:14:52.491Z,85.50
2022-09-23T15:19:59.895Z,88.00
2022-09-23T15:25:17.583Z,89.20
2022-09-23T15:30:21.095Z,88.00
2022-09-23T15:35:26.917Z,91.40
2022-09-23T15:40:31.291Z,92.40
2022-09-23T15:45:37.544Z,92.50
2022-09-23T15:50:42.656Z,92.10
2022-09-23T15:55:44.891Z,92.00
2022-09-23T16:00:48.464Z,92.80
2022-09-23T16:05:55.215Z,91.90
2022-09-23T16:10:58.878Z,91.80
2022-09-23T16:16:00.863Z,91.70
2022-09-23T16:21:07.763Z,90.60
2022-09-23T16:26:16.676Z,94.00
2022-09-23T16:31:19.236Z,96.60
2022-09-23T16:36:26.090Z,98.20
2022-09-23T16:41:29.904Z,99.90
2022-09-23T16:46:32.489Z,99.90
2022-09-23T16:51:38.642Z,99.90
2022-09-23T16:56:45.278Z,99.90
2022-09-23T17:02:05.136Z,99.90
2022-09-23T17:07:08.665Z,99.90
2022-09-23T17:12:18.586Z,99.90
2022-09-23T17:17:20.599Z,99.90
2022-09-23T17:22:23.795Z,99.90
2022-09-23T17:27:26.162Z,99.90
2022-09-23T17:32:28.738Z,99.90
2022-09-23T17:37:33.449Z,99.90
2022-09-23T17:42:35.815Z,99.90
2022-09-23T17:47:41.405Z,99.90
2022-09-23T17:52:45.288Z,99.90
2022-09-23T17:57:52.831Z,99.90
2022-09-23T18:02:55.073Z,99.90
2022-09-23T18:08:01.825Z,99.90
2022-09-23T18:13:05.889Z,99.90
2022-09-23T18:18:08.713Z,99.90
2022-09-23T18:23:12.580Z,99.90
2022-09-23T18:28:15.191Z,99.90
2022-09-23T18:33:17.506Z,99.90
2022-09-23T18:38:20.937Z,99.90
2022-09-23T18:43:25.839Z,99.90
2022-09-23T18:48:46.208Z,99.90
2022-09-23T18:53:50.417Z,99.90
2022-09-23T18:58:54.222Z,99.90
2022-09-23T19:03:56.862Z,99.90
2022-09-23T19:09:00.630Z,99.90
2022-09-23T19:14:03.626Z,99.90
2022-09-23T19:19:07.405Z,99.90
2022-09-23T19:24:16.085Z,99.90
2022-09-23T19:29:22.084Z,99.90
2022-09-23T19:34:26.226Z,99.90
2022-09-23T19:39:31.945Z,99.90
2022-09-23T19:44:34.599Z,99.90
2022-09-23T19:49:37.114Z,99.90
2022-09-23T19:54:40.665Z,99.90
2022-09-23T19:59:43.174Z,99.90
2022-09-23T20:04:45.433Z,99.90
2022-09-23T20:09:49.238Z,99.90
2022-09-23T20:14:52.274Z,99.90
2022-09-23T20:19:54.795Z,99.90
2022-09-23T20:24:58.408Z,99.90
2022-09-23T20:30:01.019Z,99.90
2022-09-23T20:35:03.219Z,99.90
2022-09-23T20:40:09.386Z,99.90
2022-09-23T20:45:12.029Z,99.90
2022-09-23T20:50:14.143Z,99.90
2022-09-23T20:55:18.314Z,99.90
2022-09-23T21:00:20.849Z,99.90
2022-09-23T21:05:24.868Z,99.90
2022-09-23T21:10:29.294Z,99.90
2022-09-23T21:15:32.663Z,99.90
2022-09-23T21:20:35.895Z,99.90
2022-09-23T21:25:40.432Z,99.90
2022-09-23T21:30:42.383Z,99.90
2022-09-23T21:35:44.426Z,99.90
2022-09-23T21:40:56.982Z,99.90
2022-09-23T21:45:59.666Z,99.90
2022-09-23T21:51:05.056Z,99.90
2022-09-23T21:56:10.907Z,99.90
2022-09-23T22:01:15.638Z,99.90
2022-09-23T22:06:21.802Z,99.90
2022-09-23T22:11:44.082Z,99.90
2022-09-23T22:16:46.112Z,99.90
2022-09-23T22:21:50.756Z,99.90
2022-09-23T22:26:54.223Z,99.90
2022-09-23T22:32:13.903Z,99.90
2022-09-23T22:37:18.038Z,99.90
2022-09-23T22:42:22.606Z,99.90
2022-09-23T22:47:25.097Z,99.90
2022-09-23T22:52:27.497Z,99.90
2022-09-23T22:57:31.436Z,99.90
2022-09-23T23:02:33.776Z,99.90
2022-09-23T23:07:36.364Z,99.90
2022-09-23T23:12:40.342Z,99.90
2022-09-23T23:17:43.783Z,99.90
2022-09-23T23:22:45.698Z,99.90
2022-09-23T23:27:48.986Z,99.90
2022-09-23T23:32:51.872Z,99.90
2022-09-23T23:37:53.959Z,99.90
2022-09-23T23:42:58.836Z,99.90
2022-09-23T23:48:00.976Z,99.90
2022-09-23T23:53:05.520Z,99.90
2022-09-23T23:58:08.970Z,99.90
